Time;durP1;ratioP1;P1;durP2;ratioP2;P2;SDS_P1;SDS_P2;PMS_P1;PMS_P2;Temp;Humidity;BMP_temperature;BMP_pressure;BME280_temperature;BME280_humidity;BME280_pressure;Samples;Min_cycle;Max_cycle;Signal;HPM_P1;HPM_P2
2022/10/28 00:00:33;;;;;;;22.17;8.93;;;;;;;;;;4942971;29;20514;-67
2022/10/28 00:03:03;;;;;;;20.38;8.18;;;;;;;;;;4943865;29;20107;-67
2022/10/28 00:05:34;;;;;;;18.75;8.85;;;;;;;;;;4941684;29;20043;-67
2022/10/28 00:08:01;;;;;;;21.13;8.73;;;;;;;;;;4944773;29;20457;-67
2022/10/28 00:10:28;;;;;;;23.67;8.70;;;;;;;;;;4944309;29;20051;-67
2022/10/28 00:12:55;;;;;;;20.27;9.27;;;;;;;;;;4943605;29;20044;-67
2022/10/28 00:15:22;;;;;;;21.60;9.50;;;;;;;;;;4945286;29;20074;-67
2022/10/28 00:17:50;;;;;;;19.60;8.90;;;;;;;;;;4947215;29;20118;-67
2022/10/28 00:20:18;;;;;;;20.05;10.75;;;;;;;;;;4939016;29;20051;-68
2022/10/28 00:22:45;;;;;;;18.88;9.02;;;;;;;;;;4940288;29;20055;-67
2022/10/28 00:25:13;;;;;;;20.33;9.98;;;;;;;;;;4946734;29;20055;-68
2022/10/28 00:27:40;;;;;;;22.50;10.35;;;;;;;;;;4928682;29;20059;-67
2022/10/28 00:30:07;;;;;;;23.77;9.38;;;;;;;;;;4944589;29;20059;-67
2022/10/28 00:32:35;;;;;;;21.23;9.65;;;;;;;;;;4931734;29;20076;-67
2022/10/28 00:35:02;;;;;;;22.05;9.32;;;;;;;;;;4930807;29;20082;-67
2022/10/28 00:37:30;;;;;;;15.45;9.10;;;;;;;;;;4950674;29;20518;-67
2022/10/28 00:39:58;;;;;;;21.30;10.45;;;;;;;;;;4941330;29;20063;-67
2022/10/28 00:42:25;;;;;;;25.05;10.07;;;;;;;;;;4947433;29;20078;-67
2022/10/28 00:44:56;;;;;;;28.25;10.63;;;;;;;;;;4947071;29;20058;-67
2022/10/28 00:47:33;;;;;;;18.55;10.63;;;;;;;;;;4942840;29;20298;-67
2022/10/28 00:50:04;;;;;;;21.80;10.25;;;;;;;;;;4943914;29;20051;-67
2022/10/28 00:52:33;;;;;;;26.02;11.55;;;;;;;;;;4940289;29;20051;-67
2022/10/28 00:55:01;;;;;;;17.85;10.40;;;;;;;;;;4944693;29;20059;-67
2022/10/28 00:57:31;;;;;;;26.05;10.77;;;;;;;;;;4949608;29;20600;-67
2022/10/28 00:59:59;;;;;;;25.05;10.40;;;;;;;;;;4938223;29;20051;-67
2022/10/28 01:02:26;;;;;;;19.60;9.95;;;;;;;;;;4949677;29;20051;-67
2022/10/28 01:04:53;;;;;;;20.35;9.60;;;;;;;;;;4948812;29;20043;-67
2022/10/28 01:07:21;;;;;;;25.67;11.18;;;;;;;;;;4950723;29;20047;-67
2022/10/28 01:09:49;;;;;;;20.48;10.70;;;;;;;;;;4941961;29;20059;-67
2022/10/28 01:12:21;;;;;;;21.52;10.98;;;;;;;;;;4948879;29;20047;-67
2022/10/28 01:14:55;;;;;;;19.67;9.95;;;;;;;;;;4949486;29;20051;-67
2022/10/28 01:17:28;;;;;;;19.60;10.98;;;;;;;;;;4928165;29;20059;-67
2022/10/28 01:20:12;;;;;;;22.92;10.82;;;;;;;;;;4949951;29;20179;-67
2022/10/28 01:22:42;;;;;;;38.35;11.48;;;;;;;;;;4950091;29;20066;-67
2022/10/28 01:25:40;;;;;;;20.98;11.20;;;;;;;;;;4949237;29;20055;-67
2022/10/28 01:28:19;;;;;;;20.08;9.77;;;;;;;;;;4949743;29;20047;-67
2022/10/28 01:31:19;;;;;;;21.83;10.68;;;;;;;;;;4940637;29;20043;-67
2022/10/28 01:33:51;;;;;;;21.17;11.02;;;;;;;;;;4871527;29;20089;-67
2022/10/28 01:36:20;;;;;;;20.20;10.93;;;;;;;;;;4870896;29;20090;-67
2022/10/28 01:38:51;;;;;;;27.13;11.70;;;;;;;;;;4905956;29;20051;-68
2022/10/28 01:41:24;;;;;;;22.33;10.73;;;;;;;;;;4946700;29;20047;-67
2022/10/28 01:43:55;;;;;;;20.60;9.95;;;;;;;;;;4946891;29;20532;-67
2022/10/28 01:46:25;;;;;;;19.63;10.60;;;;;;;;;;4944253;28;20196;-67
2022/10/28 01:48:56;;;;;;;28.38;11.77;;;;;;;;;;4945873;29;20059;-67
2022/10/28 01:51:25;;;;;;;21.92;10.70;;;;;;;;;;4947740;29;20109;-67
2022/10/28 01:53:54;;;;;;;20.77;11.90;;;;;;;;;;4948932;29;20087;-67
2022/10/28 01:56:22;;;;;;;26.73;11.55;;;;;;;;;;4947083;29;20063;-67
2022/10/28 01:58:51;;;;;;;23.30;12.35;;;;;;;;;;4948512;29;20051;-67
2022/10/28 02:01:18;;;;;;;30.92;12.43;;;;;;;;;;4947774;29;20047;-67
2022/10/28 02:03:46;;;;;;;23.85;11.30;;;;;;;;;;4949438;28;20059;-67
2022/10/28 02:06:16;;;;;;;24.48;11.00;;;;;;;;;;4927238;29;20067;-67
2022/10/28 02:08:53;;;;;;;27.52;10.57;;;;;;;;;;4931083;29;20066;-67
2022/10/28 02:11:29;;;;;;;26.85;11.48;;;;;;;;;;4944566;29;20059;-67
2022/10/28 02:14:00;;;;;;;19.05;10.73;;;;;;;;;;4945178;29;20055;-67
2022/10/28 02:16:30;;;;;;;27.13;11.70;;;;;;;;;;4923607;29;20071;-67
2022/10/28 02:19:02;;;;;;;23.08;10.82;;;;;;;;;;4942055;29;20142;-67
2022/10/28 02:21:36;;;;;;;19.05;10.10;;;;;;;;;;4946035;29;20051;-67
2022/10/28 02:24:09;;;;;;;22.60;11.25;;;;;;;;;;4949853;29;20055;-67
2022/10/28 02:26:38;;;;;;;25.73;10.07;;;;;;;;;;4947405;29;20534;-67
2022/10/28 02:29:08;;;;;;;19.95;10.05;;;;;;;;;;4918016;29;20059;-67
2022/10/28 02:31:37;;;;;;;25.67;11.20;;;;;;;;;;4947277;29;20058;-67
2022/10/28 02:34:06;;;;;;;23.30;10.70;;;;;;;;;;4938246;29;20063;-67
2022/10/28 02:36:37;;;;;;;31.80;11.23;;;;;;;;;;4948072;29;20063;-67
2022/10/28 02:39:06;;;;;;;23.85;11.20;;;;;;;;;;4925680;29;20141;-67
2022/10/28 02:41:35;;;;;;;28.63;12.23;;;;;;;;;;4942281;29;20110;-67
2022/10/28 02:44:07;;;;;;;23.35;10.60;;;;;;;;;;4940545;29;20055;-67
2022/10/28 02:46:35;;;;;;;25.70;12.07;;;;;;;;;;4938646;29;20048;-67
2022/10/28 02:49:04;;;;;;;22.77;12.90;;;;;;;;;;4937579;29;20539;-67
2022/10/28 02:51:34;;;;;;;25.88;13.18;;;;;;;;;;4938971;29;20052;-67
2022/10/28 02:54:05;;;;;;;26.98;12.63;;;;;;;;;;4941703;29;20046;-67
2022/10/28 02:56:34;;;;;;;26.35;12.32;;;;;;;;;;4941046;29;20054;-67
2022/10/28 02:59:01;;;;;;;28.00;12.98;;;;;;;;;;4921624;29;20059;-67
2022/10/28 03:01:28;;;;;;;22.80;11.50;;;;;;;;;;4925600;29;20062;-67
2022/10/28 03:03:55;;;;;;;31.08;12.65;;;;;;;;;;4945860;28;20055;-67
2022/10/28 03:06:22;;;;;;;27.42;12.38;;;;;;;;;;4934407;29;20055;-67
2022/10/28 03:08:50;;;;;;;24.55;12.70;;;;;;;;;;4947728;29;20384;-67
2022/10/28 03:11:19;;;;;;;25.10;13.38;;;;;;;;;;4944472;29;20102;-67
2022/10/28 03:13:46;;;;;;;27.90;13.02;;;;;;;;;;4947022;29;20127;-67
2022/10/28 03:16:13;;;;;;;27.15;12.30;;;;;;;;;;4943554;29;20107;-67
2022/10/28 03:18:40;;;;;;;29.27;11.43;;;;;;;;;;4938789;29;20736;-67
2022/10/28 03:21:08;;;;;;;23.63;11.77;;;;;;;;;;4929136;29;20059;-68
2022/10/28 03:23:35;;;;;;;29.85;12.40;;;;;;;;;;4947999;29;20588;-67
2022/10/28 03:26:02;;;;;;;26.30;12.90;;;;;;;;;;4947576;29;20051;-68
2022/10/28 03:28:30;;;;;;;29.20;12.82;;;;;;;;;;4945473;29;20122;-67
2022/10/28 03:30:58;;;;;;;23.73;12.10;;;;;;;;;;4945916;29;20623;-67
2022/10/28 03:33:25;;;;;;;24.23;12.35;;;;;;;;;;4946708;29;20056;-67
2022/10/28 03:35:52;;;;;;;35.88;13.73;;;;;;;;;;4947605;29;20102;-67
2022/10/28 03:38:19;;;;;;;23.98;13.27;;;;;;;;;;4942308;29;20115;-68
2022/10/28 03:40:48;;;;;;;24.92;12.20;;;;;;;;;;4943655;29;20102;-67
2022/10/28 03:43:15;;;;;;;27.75;13.07;;;;;;;;;;4942400;29;20131;-67
2022/10/28 03:45:44;;;;;;;23.80;12.20;;;;;;;;;;4947329;29;20055;-68
2022/10/28 03:48:11;;;;;;;25.75;11.95;;;;;;;;;;4944093;29;20043;-67
2022/10/28 03:50:38;;;;;;;24.00;12.48;;;;;;;;;;4947329;29;20154;-67
2022/10/28 03:53:05;;;;;;;30.27;13.27;;;;;;;;;;4942864;29;20055;-67
2022/10/28 03:55:32;;;;;;;31.48;13.57;;;;;;;;;;4945324;29;20505;-67
2022/10/28 03:58:00;;;;;;;28.33;12.93;;;;;;;;;;4944404;29;20043;-67
2022/10/28 04:00:28;;;;;;;25.63;14.18;;;;;;;;;;4945817;29;20098;-67
2022/10/28 04:02:56;;;;;;;29.40;12.82;;;;;;;;;;4946574;28;20051;-67
2022/10/28 04:05:23;;;;;;;28.77;14.07;;;;;;;;;;4944666;29;20122;-67
2022/10/28 04:07:52;;;;;;;26.02;12.35;;;;;;;;;;4946345;29;20051;-67
2022/10/28 04:10:20;;;;;;;33.13;13.43;;;;;;;;;;4945179;28;20157;-68
2022/10/28 04:12:47;;;;;;;39.33;14.70;;;;;;;;;;4945734;29;20047;-67
2022/10/28 04:15:14;;;;;;;29.73;14.90;;;;;;;;;;4942687;29;20051;-67
2022/10/28 04:17:41;;;;;;;27.35;14.93;;;;;;;;;;4925195;29;20500;-68
2022/10/28 04:20:11;;;;;;;34.92;14.07;;;;;;;;;;4942449;29;20051;-67
2022/10/28 04:22:38;;;;;;;26.50;12.57;;;;;;;;;;4946026;29;20067;-68
2022/10/28 04:25:05;;;;;;;26.52;13.65;;;;;;;;;;4941651;29;20439;-67
2022/10/28 04:27:33;;;;;;;23.73;14.02;;;;;;;;;;4944024;29;20052;-67
2022/10/28 04:30:00;;;;;;;27.95;13.73;;;;;;;;;;4945047;29;20106;-67
2022/10/28 04:32:27;;;;;;;26.27;13.07;;;;;;;;;;4940323;29;20043;-67
2022/10/28 04:34:54;;;;;;;38.20;15.27;;;;;;;;;;4944854;29;20122;-67
2022/10/28 04:37:23;;;;;;;25.98;13.55;;;;;;;;;;4946105;29;20055;-68
2022/10/28 04:39:50;;;;;;;29.65;13.73;;;;;;;;;;4947314;29;20058;-67
2022/10/28 04:42:17;;;;;;;31.65;14.43;;;;;;;;;;4938330;29;20051;-67
2022/10/28 04:44:44;;;;;;;32.67;14.40;;;;;;;;;;4947369;29;20457;-67
2022/10/28 04:47:11;;;;;;;27.67;13.85;;;;;;;;;;4946768;29;20051;-67
2022/10/28 04:49:39;;;;;;;30.83;15.32;;;;;;;;;;4947417;29;20058;-67
2022/10/28 04:52:06;;;;;;;29.98;15.00;;;;;;;;;;4946813;29;20557;-67
2022/10/28 04:54:34;;;;;;;30.88;16.05;;;;;;;;;;4946969;29;20102;-67
2022/10/28 04:57:02;;;;;;;29.15;14.82;;;;;;;;;;4945367;29;20384;-67
2022/10/28 04:59:29;;;;;;;31.13;16.25;;;;;;;;;;4927952;29;20059;-68
2022/10/28 05:01:56;;;;;;;31.13;16.13;;;;;;;;;;4943085;29;20542;-67
2022/10/28 05:04:23;;;;;;;39.83;18.17;;;;;;;;;;4944730;28;20057;-67
2022/10/28 05:06:51;;;;;;;29.88;16.58;;;;;;;;;;4938926;28;20470;-67
2022/10/28 05:09:18;;;;;;;38.65;17.27;;;;;;;;;;4936894;29;20047;-67
2022/10/28 05:11:46;;;;;;;36.40;17.10;;;;;;;;;;4939013;29;20143;-67
2022/10/28 05:14:14;;;;;;;38.35;17.02;;;;;;;;;;4932306;29;20058;-68
2022/10/28 05:16:41;;;;;;;32.00;16.23;;;;;;;;;;4942452;29;20052;-67
2022/10/28 05:19:08;;;;;;;40.13;17.35;;;;;;;;;;4939715;29;20491;-67
2022/10/28 05:21:35;;;;;;;31.25;15.93;;;;;;;;;;4938976;29;20106;-67
2022/10/28 05:24:03;;;;;;;36.00;16.25;;;;;;;;;;4944561;28;20054;-67
2022/10/28 05:26:30;;;;;;;29.33;16.10;;;;;;;;;;4947757;29;20051;-67
2022/10/28 05:28:58;;;;;;;40.08;17.23;;;;;;;;;;4939922;29;20056;-67
2022/10/28 05:31:25;;;;;;;36.88;17.05;;;;;;;;;;4944720;29;20110;-67
2022/10/28 05:33:53;;;;;;;37.15;16.80;;;;;;;;;;4937137;29;20070;-67
2022/10/28 05:36:20;;;;;;;36.30;15.98;;;;;;;;;;4942189;29;20078;-67
2022/10/28 05:38:48;;;;;;;33.10;15.43;;;;;;;;;;4948872;29;20055;-67
2022/10/28 05:41:15;;;;;;;41.85;16.88;;;;;;;;;;4942659;29;20062;-67
2022/10/28 05:43:42;;;;;;;28.48;15.65;;;;;;;;;;4946758;29;20103;-67
2022/10/28 05:46:11;;;;;;;37.20;15.70;;;;;;;;;;4948872;29;20114;-67
2022/10/28 05:48:38;;;;;;;33.50;16.05;;;;;;;;;;4949972;29;20110;-67
2022/10/28 05:51:06;;;;;;;34.95;17.70;;;;;;;;;;4947373;29;20110;-67
2022/10/28 05:53:33;;;;;;;35.30;16.05;;;;;;;;;;4946890;29;20051;-67
2022/10/28 05:56:00;;;;;;;35.22;15.88;;;;;;;;;;4942446;29;20051;-67
2022/10/28 05:58:27;;;;;;;44.83;16.90;;;;;;;;;;4945013;29;20055;-67
2022/10/28 06:00:54;;;;;;;31.90;16.58;;;;;;;;;;4949359;29;20155;-67
2022/10/28 06:03:23;;;;;;;28.85;14.30;;;;;;;;;;4948888;28;20078;-67
2022/10/28 06:05:50;;;;;;;36.40;16.80;;;;;;;;;;4940728;29;20095;-67
2022/10/28 06:08:18;;;;;;;34.25;16.42;;;;;;;;;;4947334;29;20106;-67
2022/10/28 06:10:50;;;;;;;30.25;15.32;;;;;;;;;;4949439;29;20402;-67
2022/10/28 06:13:17;;;;;;;36.60;16.13;;;;;;;;;;4948215;29;20125;-67
2022/10/28 06:15:45;;;;;;;33.38;16.70;;;;;;;;;;4948664;29;20493;-67
2022/10/28 06:18:12;;;;;;;29.88;15.18;;;;;;;;;;4941031;29;20079;-67
2022/10/28 06:20:41;;;;;;;29.95;14.80;;;;;;;;;;4925040;29;20139;-67
2022/10/28 06:23:08;;;;;;;36.22;16.23;;;;;;;;;;4948120;29;20047;-67
2022/10/28 06:25:35;;;;;;;41.92;17.10;;;;;;;;;;4927865;29;20053;-67
2022/10/28 06:28:02;;;;;;;36.05;16.17;;;;;;;;;;4926213;29;20063;-67
2022/10/28 06:30:29;;;;;;;35.15;16.38;;;;;;;;;;4941446;29;20055;-67
2022/10/28 06:32:57;;;;;;;38.20;15.20;;;;;;;;;;4936915;28;20043;-67
2022/10/28 06:35:24;;;;;;;29.20;15.52;;;;;;;;;;4939780;29;20126;-67
2022/10/28 06:37:55;;;;;;;33.38;15.60;;;;;;;;;;4948613;29;20497;-67
2022/10/28 06:40:22;;;;;;;39.22;15.40;;;;;;;;;;4926990;29;20055;-67
2022/10/28 06:42:50;;;;;;;34.03;15.38;;;;;;;;;;4940888;29;20055;-67
2022/10/28 06:45:17;;;;;;;33.35;14.00;;;;;;;;;;4940097;29;20050;-67
2022/10/28 06:47:44;;;;;;;35.42;15.23;;;;;;;;;;4944451;29;20058;-67
2022/10/28 06:50:11;;;;;;;28.48;15.07;;;;;;;;;;4944826;29;20410;-67
2022/10/28 06:52:41;;;;;;;26.25;14.43;;;;;;;;;;4947354;29;20056;-67
2022/10/28 06:55:10;;;;;;;33.90;14.63;;;;;;;;;;4945568;29;20047;-67
2022/10/28 06:57:37;;;;;;;35.90;14.30;;;;;;;;;;4943576;29;20435;-67
2022/10/28 07:00:04;;;;;;;30.48;13.75;;;;;;;;;;4947236;29;20062;-67
2022/10/28 07:02:32;;;;;;;30.58;13.63;;;;;;;;;;4941288;28;20051;-67
2022/10/28 07:04:59;;;;;;;33.33;12.70;;;;;;;;;;4946998;28;20417;-67
2022/10/28 07:07:26;;;;;;;26.17;11.93;;;;;;;;;;4946924;29;20070;-67
2022/10/28 07:09:53;;;;;;;25.70;12.18;;;;;;;;;;4932552;29;20434;-67
2022/10/28 07:12:22;;;;;;;25.10;11.65;;;;;;;;;;4927577;29;20051;-67
2022/10/28 07:14:49;;;;;;;23.20;11.30;;;;;;;;;;4946375;29;20073;-67
2022/10/28 07:17:16;;;;;;;20.05;10.80;;;;;;;;;;4927153;28;20060;-67
2022/10/28 07:19:43;;;;;;;20.52;10.13;;;;;;;;;;4947283;29;20047;-67
2022/10/28 07:22:11;;;;;;;23.83;10.32;;;;;;;;;;4923506;29;20066;-67
2022/10/28 07:24:38;;;;;;;24.90;10.43;;;;;;;;;;4941168;29;20055;-67
2022/10/28 07:27:05;;;;;;;30.70;10.15;;;;;;;;;;4947547;29;20303;-67
2022/10/28 07:29:34;;;;;;;21.85;10.20;;;;;;;;;;4941979;29;20648;-67
2022/10/28 07:32:01;;;;;;;26.02;10.23;;;;;;;;;;4928600;29;20051;-67
2022/10/28 07:34:28;;;;;;;18.48;8.27;;;;;;;;;;4944100;28;20051;-66
2022/10/28 07:36:56;;;;;;;19.42;8.80;;;;;;;;;;4937243;29;20099;-66
2022/10/28 07:39:23;;;;;;;23.98;10.05;;;;;;;;;;4945787;29;20384;-67
2022/10/28 07:41:50;;;;;;;23.48;8.82;;;;;;;;;;4945361;29;20537;-67
2022/10/28 07:44:17;;;;;;;23.83;8.77;;;;;;;;;;4941629;28;20129;-67
2022/10/28 07:46:46;;;;;;;25.15;8.85;;;;;;;;;;4928859;29;20059;-67
2022/10/28 07:49:13;;;;;;;20.27;9.05;;;;;;;;;;4943731;29;20113;-67
2022/10/28 07:51:40;;;;;;;22.83;8.65;;;;;;;;;;4947074;29;20057;-67
2022/10/28 07:54:07;;;;;;;28.02;9.00;;;;;;;;;;4947839;29;20127;-67
2022/10/28 07:56:35;;;;;;;22.65;8.63;;;;;;;;;;4942878;29;20055;-66
2022/10/28 07:59:02;;;;;;;18.27;8.85;;;;;;;;;;4945350;29;20582;-67
2022/10/28 08:01:29;;;;;;;19.30;7.97;;;;;;;;;;4946347;29;20425;-67
2022/10/28 08:03:58;;;;;;;20.58;8.55;;;;;;;;;;4942792;28;20140;-67
2022/10/28 08:06:25;;;;;;;21.83;8.10;;;;;;;;;;4942537;29;20070;-67
2022/10/28 08:08:54;;;;;;;18.08;8.35;;;;;;;;;;4930967;29;20499;-67
2022/10/28 08:11:22;;;;;;;17.00;7.97;;;;;;;;;;4932333;29;20066;-67
2022/10/28 08:13:50;;;;;;;18.50;7.57;;;;;;;;;;4945385;29;20597;-67
2022/10/28 08:16:17;;;;;;;24.83;8.05;;;;;;;;;;4940244;29;20594;-67
2022/10/28 08:18:45;;;;;;;18.08;7.15;;;;;;;;;;4943781;29;20063;-67
2022/10/28 08:21:14;;;;;;;16.17;6.68;;;;;;;;;;4937843;29;20599;-67
2022/10/28 08:23:45;;;;;;;22.55;7.50;;;;;;;;;;4940956;29;20417;-67
2022/10/28 08:26:12;;;;;;;21.33;8.10;;;;;;;;;;4939468;29;20497;-67
2022/10/28 08:28:39;;;;;;;17.13;7.47;;;;;;;;;;4943700;29;20059;-67
2022/10/28 08:31:08;;;;;;;13.10;7.15;;;;;;;;;;4943742;29;20084;-67
2022/10/28 08:33:36;;;;;;;19.77;7.13;;;;;;;;;;4944102;29;20146;-67
2022/10/28 08:36:04;;;;;;;15.85;7.18;;;;;;;;;;4927400;29;20051;-67
2022/10/28 08:38:32;;;;;;;19.55;7.57;;;;;;;;;;4944633;29;20554;-67
2022/10/28 08:41:04;;;;;;;21.05;7.35;;;;;;;;;;4944452;29;20047;-67
2022/10/28 08:43:36;;;;;;;20.27;7.45;;;;;;;;;;4945319;29;20051;-67
2022/10/28 08:46:11;;;;;;;24.90;8.00;;;;;;;;;;4941852;29;20043;-67
2022/10/28 08:48:38;;;;;;;19.15;7.03;;;;;;;;;;4944417;29;20050;-67
2022/10/28 08:51:09;;;;;;;17.38;6.68;;;;;;;;;;4943262;29;20059;-67
2022/10/28 08:53:41;;;;;;;16.38;7.32;;;;;;;;;;4939350;29;20052;-67
2022/10/28 08:56:13;;;;;;;20.77;7.22;;;;;;;;;;4943189;28;20073;-67
2022/10/28 08:58:43;;;;;;;19.60;6.93;;;;;;;;;;4949054;28;20063;-67
2022/10/28 09:01:17;;;;;;;20.50;7.28;;;;;;;;;;4946822;29;20303;-67
2022/10/28 09:03:45;;;;;;;24.75;7.05;;;;;;;;;;4948655;28;20122;-67
2022/10/28 09:06:13;;;;;;;19.98;7.07;;;;;;;;;;4948828;29;20047;-67
2022/10/28 09:08:42;;;;;;;18.70;7.10;;;;;;;;;;4949775;29;20147;-67
2022/10/28 09:11:35;;;;;;;14.30;6.90;;;;;;;;;;4948528;28;20446;-67
2022/10/28 09:14:08;;;;;;;13.23;6.65;;;;;;;;;;4931267;29;20058;-67
2022/10/28 09:16:40;;;;;;;23.40;7.50;;;;;;;;;;4930642;29;20066;-67
2022/10/28 09:19:14;;;;;;;19.90;7.63;;;;;;;;;;4948977;29;20057;-67
2022/10/28 09:21:47;;;;;;;16.45;7.00;;;;;;;;;;4948687;29;20074;-67
2022/10/28 09:24:18;;;;;;;16.23;7.15;;;;;;;;;;4946241;29;20055;-67
2022/10/28 09:26:49;;;;;;;22.80;7.38;;;;;;;;;;4945684;29;20051;-67
2022/10/28 09:29:21;;;;;;;19.02;6.25;;;;;;;;;;4946682;28;20130;-67
2022/10/28 09:31:50;;;;;;;19.08;7.13;;;;;;;;;;4946134;29;20051;-67
2022/10/28 09:34:22;;;;;;;19.67;7.43;;;;;;;;;;4946859;29;20047;-67
2022/10/28 09:36:52;;;;;;;21.40;7.15;;;;;;;;;;4948889;29;20058;-67
2022/10/28 09:39:23;;;;;;;17.27;6.82;;;;;;;;;;4945219;29;20059;-67
2022/10/28 09:41:51;;;;;;;15.90;6.68;;;;;;;;;;4946752;29;20054;-67
2022/10/28 09:44:21;;;;;;;16.83;6.85;;;;;;;;;;4932709;29;20050;-67
2022/10/28 09:46:51;;;;;;;21.65;6.70;;;;;;;;;;4943526;29;20415;-67
2022/10/28 09:49:19;;;;;;;18.48;7.03;;;;;;;;;;4948337;29;20077;-67
2022/10/28 09:51:48;;;;;;;21.85;7.15;;;;;;;;;;4945103;29;20640;-67
2022/10/28 09:54:16;;;;;;;16.70;6.93;;;;;;;;;;4948788;29;20050;-67
2022/10/28 09:56:45;;;;;;;18.33;6.43;;;;;;;;;;4927473;29;20051;-67
2022/10/28 09:59:14;;;;;;;21.05;6.82;;;;;;;;;;4947623;29;20592;-67
2022/10/28 10:01:42;;;;;;;17.67;6.78;;;;;;;;;;4946636;29;20047;-67
2022/10/28 10:04:16;;;;;;;26.33;7.72;;;;;;;;;;4943314;28;20705;-67
2022/10/28 10:06:43;;;;;;;41.35;8.95;;;;;;;;;;4948422;29;20055;-67
2022/10/28 10:09:15;;;;;;;20.60;6.75;;;;;;;;;;4948067;28;20506;-67
2022/10/28 10:11:44;;;;;;;20.00;6.85;;;;;;;;;;4945596;29;20050;-67
2022/10/28 10:14:15;;;;;;;14.98;6.68;;;;;;;;;;4947294;29;20053;-67
2022/10/28 10:16:45;;;;;;;14.75;6.15;;;;;;;;;;4948609;29;20055;-67
2022/10/28 10:19:13;;;;;;;16.88;7.57;;;;;;;;;;4941906;29;20087;-67
2022/10/28 10:21:42;;;;;;;19.83;6.47;;;;;;;;;;4948732;29;20051;-67
2022/10/28 10:24:25;;;;;;;17.02;6.50;;;;;;;;;;4943926;29;20494;-67
2022/10/28 10:26:53;;;;;;;18.38;6.60;;;;;;;;;;4942416;29;20062;-67
2022/10/28 10:29:22;;;;;;;20.52;6.90;;;;;;;;;;4947112;29;20818;-67
2022/10/28 10:32:04;;;;;;;33.35;7.65;;;;;;;;;;4941970;29;20106;-68
2022/10/28 10:34:31;;;;;;;32.03;7.40;;;;;;;;;;4946951;29;20055;-67
2022/10/28 10:36:59;;;;;;;19.98;6.90;;;;;;;;;;4944685;29;20134;-67
2022/10/28 10:39:27;;;;;;;16.75;6.70;;;;;;;;;;4945699;29;20624;-67
2022/10/28 10:41:55;;;;;;;16.25;6.82;;;;;;;;;;4944732;29;20091;-68
2022/10/28 10:44:32;;;;;;;20.85;6.80;;;;;;;;;;4949046;29;20051;-67
2022/10/28 10:47:17;;;;;;;21.35;7.57;;;;;;;;;;4930064;29;20149;-67
2022/10/28 10:49:44;;;;;;;19.27;6.82;;;;;;;;;;4944024;29;20486;-68
2022/10/28 10:52:18;;;;;;;21.50;7.82;;;;;;;;;;4932434;29;20058;-67
2022/10/28 10:54:47;;;;;;;17.60;6.43;;;;;;;;;;4942956;29;20047;-67
2022/10/28 10:57:17;;;;;;;17.50;6.38;;;;;;;;;;4948018;29;20059;-67
2022/10/28 10:59:48;;;;;;;22.48;6.05;;;;;;;;;;4948063;29;20050;-68
2022/10/28 11:02:21;;;;;;;20.85;7.05;;;;;;;;;;4946486;29;20054;-67
2022/10/28 11:04:51;;;;;;;15.75;6.25;;;;;;;;;;4942176;28;20051;-67
2022/10/28 11:07:19;;;;;;;16.58;6.47;;;;;;;;;;4948495;29;20067;-67
2022/10/28 11:09:48;;;;;;;19.88;6.10;;;;;;;;;;4948113;29;20445;-67
2022/10/28 11:12:16;;;;;;;16.42;6.28;;;;;;;;;;4925945;29;20784;-67
2022/10/28 11:14:56;;;;;;;20.13;5.72;;;;;;;;;;4946051;29;20066;-67
2022/10/28 11:17:24;;;;;;;19.40;6.53;;;;;;;;;;4941938;29;20146;-67
2022/10/28 11:19:54;;;;;;;18.02;6.00;;;;;;;;;;4945180;28;20422;-67
2022/10/28 11:22:29;;;;;;;26.85;6.20;;;;;;;;;;4946827;29;20125;-68
2022/10/28 11:25:06;;;;;;;16.10;6.03;;;;;;;;;;4941889;29;20047;-67
2022/10/28 11:27:39;;;;;;;20.13;6.80;;;;;;;;;;4936885;29;20110;-67
2022/10/28 11:30:11;;;;;;;19.17;5.90;;;;;;;;;;4941574;29;20059;-67
2022/10/28 11:32:46;;;;;;;21.20;5.55;;;;;;;;;;4941205;29;20101;-67
2022/10/28 11:35:37;;;;;;;18.48;6.15;;;;;;;;;;4943756;29;20066;-67
2022/10/28 11:38:12;;;;;;;12.52;5.60;;;;;;;;;;4924703;29;20047;-67
2022/10/28 11:40:45;;;;;;;16.77;6.07;;;;;;;;;;4941801;29;20443;-67
2022/10/28 11:43:19;;;;;;;17.77;5.90;;;;;;;;;;4943449;29;20067;-67
2022/10/28 11:45:50;;;;;;;27.67;5.95;;;;;;;;;;4946251;29;20573;-67
2022/10/28 11:48:23;;;;;;;18.13;5.90;;;;;;;;;;4942066;29;20135;-67
2022/10/28 11:50:56;;;;;;;19.15;6.85;;;;;;;;;;4946273;29;20734;-67
2022/10/28 11:53:23;;;;;;;;;;;;;;;;;;4947072;29;20137;-67
2022/10/28 11:55:54;;;;;;;25.00;6.10;;;;;;;;;;4945623;29;19923;-67
2022/10/28 11:58:30;;;;;;;18.05;5.63;;;;;;;;;;4945164;29;20495;-67
2022/10/28 12:01:01;;;;;;;16.52;6.05;;;;;;;;;;4941753;29;20146;-67
2022/10/28 12:03:35;;;;;;;18.30;6.43;;;;;;;;;;4945568;28;20502;-67
2022/10/28 12:06:08;;;;;;;16.70;5.57;;;;;;;;;;4947285;29;20509;-67
2022/10/28 12:08:42;;;;;;;26.65;7.18;;;;;;;;;;4940999;29;20047;-67
2022/10/28 12:11:18;;;;;;;22.30;6.03;;;;;;;;;;4945672;29;20055;-67
2022/10/28 12:13:49;;;;;;;22.98;6.47;;;;;;;;;;4947275;29;20051;-67
2022/10/28 12:16:20;;;;;;;23.95;6.32;;;;;;;;;;4946625;29;20102;-67
2022/10/28 12:18:50;;;;;;;19.20;5.80;;;;;;;;;;4946314;29;20553;-67
2022/10/28 12:21:20;;;;;;;21.63;6.60;;;;;;;;;;4945055;29;20051;-67
2022/10/28 12:23:49;;;;;;;22.17;5.72;;;;;;;;;;4944253;29;20085;-67
2022/10/28 12:26:17;;;;;;;19.23;6.05;;;;;;;;;;4945304;29;20074;-67
2022/10/28 12:28:46;;;;;;;15.43;6.22;;;;;;;;;;4926208;29;20711;-67
2022/10/28 12:31:19;;;;;;;17.63;5.95;;;;;;;;;;4944326;28;20051;-67
2022/10/28 12:33:47;;;;;;;21.67;5.93;;;;;;;;;;4946858;29;20051;-67
2022/10/28 12:36:18;;;;;;;17.58;6.00;;;;;;;;;;4950844;29;20129;-67
2022/10/28 12:38:47;;;;;;;17.88;6.03;;;;;;;;;;4928875;29;20054;-67
2022/10/28 12:41:16;;;;;;;24.77;6.32;;;;;;;;;;4943038;29;20060;-67
2022/10/28 12:43:45;;;;;;;20.02;6.63;;;;;;;;;;4949288;29;20583;-67
2022/10/28 12:46:17;;;;;;;14.50;5.70;;;;;;;;;;4929469;29;20089;-67
2022/10/28 12:48:49;;;;;;;14.73;5.85;;;;;;;;;;4950175;29;20051;-67
2022/10/28 12:51:18;;;;;;;19.90;6.13;;;;;;;;;;4931478;29;20059;-67
2022/10/28 12:53:47;;;;;;;19.30;5.65;;;;;;;;;;4949029;29;20103;-67
2022/10/28 12:56:16;;;;;;;25.13;6.65;;;;;;;;;;4949422;29;20047;-68
2022/10/28 12:58:51;;;;;;;20.20;5.82;;;;;;;;;;4948294;29;20059;-67
2022/10/28 13:01:20;;;;;;;20.13;5.80;;;;;;;;;;4948222;29;20055;-67
2022/10/28 13:03:50;;;;;;;22.33;6.53;;;;;;;;;;4932153;29;20114;-67
2022/10/28 13:06:29;;;;;;;26.35;6.47;;;;;;;;;;4948937;29;20055;-67
2022/10/28 13:09:16;;;;;;;21.08;5.80;;;;;;;;;;4949208;29;20052;-67
2022/10/28 13:11:58;;;;;;;18.27;6.43;;;;;;;;;;4949382;29;20545;-67
2022/10/28 13:14:32;;;;;;;16.80;5.70;;;;;;;;;;4942401;29;20047;-67
2022/10/28 13:17:20;;;;;;;15.32;5.82;;;;;;;;;;4947965;29;20066;-67
2022/10/28 13:19:59;;;;;;;18.95;5.63;;;;;;;;;;4942217;29;20051;-68
2022/10/28 13:22:41;;;;;;;19.58;5.50;;;;;;;;;;4945099;29;20055;-67
2022/10/28 13:25:18;;;;;;;18.92;6.00;;;;;;;;;;4938874;29;20061;-74
2022/10/28 13:27:45;;;;;;;16.98;6.38;;;;;;;;;;4931647;29;20549;-74
2022/10/28 13:30:16;;;;;;;23.73;6.28;;;;;;;;;;4926707;29;20620;-75
2022/10/28 13:32:44;;;;;;;16.67;5.55;;;;;;;;;;4932094;29;20058;-76
2022/10/28 13:35:15;;;;;;;21.23;6.03;;;;;;;;;;4924869;29;20043;-71
2022/10/28 13:37:46;;;;;;;26.50;6.35;;;;;;;;;;4948108;29;20462;-69
2022/10/28 13:40:21;;;;;;;22.63;5.72;;;;;;;;;;4926868;29;20066;-70
2022/10/28 13:42:49;;;;;;;18.33;5.80;;;;;;;;;;4932750;29;20051;-68
2022/10/28 13:45:35;;;;;;;17.67;6.20;;;;;;;;;;4930598;29;20055;-70
2022/10/28 13:48:17;;;;;;;21.75;6.38;;;;;;;;;;4949566;29;20043;-69
2022/10/28 13:50:45;;;;;;;16.95;5.80;;;;;;;;;;4927579;29;20055;-68
2022/10/28 13:53:43;;;;;;;21.75;6.68;;;;;;;;;;4930475;29;20066;-72
2022/10/28 13:56:40;;;;;;;21.70;6.35;;;;;;;;;;4923596;29;20414;-68
2022/10/28 13:59:18;;;;;;;19.50;6.35;;;;;;;;;;4854837;29;20463;-71
2022/10/28 14:02:03;;;;;;;17.23;6.22;;;;;;;;;;4932403;29;20051;-73
2022/10/28 14:04:32;;;;;;;20.10;6.40;;;;;;;;;;4948530;28;20062;-73
2022/10/28 14:07:20;;;;;;;21.42;6.85;;;;;;;;;;4949280;29;20055;-72
2022/10/28 14:09:49;;;;;;;17.98;6.35;;;;;;;;;;4942999;28;20149;-71
2022/10/28 14:12:19;;;;;;;23.13;7.18;;;;;;;;;;4946186;29;20062;-71
2022/10/28 14:14:54;;;;;;;16.83;6.63;;;;;;;;;;4930066;29;20043;-72
2022/10/28 14:17:22;;;;;;;21.65;6.47;;;;;;;;;;4942687;29;20062;-72
2022/10/28 14:19:50;;;;;;;19.52;6.07;;;;;;;;;;4948227;29;20046;-72
2022/10/28 14:22:27;;;;;;;20.95;6.80;;;;;;;;;;4949351;29;20414;-72
2022/10/28 14:24:56;;;;;;;24.58;6.70;;;;;;;;;;4949070;29;20059;-72
2022/10/28 14:27:30;;;;;;;21.20;8.68;;;;;;;;;;4940480;29;20048;-72
2022/10/28 14:30:12;;;;;;;18.50;6.70;;;;;;;;;;4944870;29;20062;-72
2022/10/28 14:32:42;;;;;;;15.10;6.18;;;;;;;;;;4939685;29;20110;-72
2022/10/28 14:35:19;;;;;;;24.40;8.20;;;;;;;;;;4942596;29;20052;-71
2022/10/28 14:38:07;;;;;;;15.05;6.10;;;;;;;;;;4923211;29;20134;-72
2022/10/28 14:40:40;;;;;;;23.95;6.32;;;;;;;;;;4940237;29;20066;-72